sensor_id;sensor_type;location;lat;lon;timestamp;P1;durP1;ratioP1;P2;durP2;ratioP2
9156;SDS011;4613;48.392;9.998;2023-05-23T00:01:26;7.27;;;5.30;;
9156;SDS011;4613;48.392;9.998;2023-05-23T00:04:15;9.50;;;5.60;;
9156;SDS011;4613;48.392;9.998;2023-05-23T00:07:09;7.60;;;4.90;;
9156;SDS011;4613;48.392;9.998;2023-05-23T00:09:59;7.60;;;5.20;;
9156;SDS011;4613;48.392;9.998;2023-05-23T00:12:48;7.37;;;5.47;;
9156;SDS011;4613;48.392;9.998;2023-05-23T00:15:38;7.00;;;5.13;;
9156;SDS011;4613;48.392;9.998;2023-05-23T00:18:29;7.63;;;4.93;;
9156;SDS011;4613;48.392;9.998;2023-05-23T00:21:19;6.93;;;5.27;;
9156;SDS011;4613;48.392;9.998;2023-05-23T00:24:08;6.00;;;4.77;;
9156;SDS011;4613;48.392;9.998;2023-05-23T00:26:58;7.40;;;5.40;;
9156;SDS011;4613;48.392;9.998;2023-05-23T00:29:47;8.33;;;5.13;;
9156;SDS011;4613;48.392;9.998;2023-05-23T00:32:36;7.03;;;5.30;;
9156;SDS011;4613;48.392;9.998;2023-05-23T00:35:26;7.83;;;5.33;;
9156;SDS011;4613;48.392;9.998;2023-05-23T00:38:16;8.33;;;5.13;;
9156;SDS011;4613;48.392;9.998;2023-05-23T00:41:05;7.17;;;5.50;;
9156;SDS011;4613;48.392;9.998;2023-05-23T00:43:54;7.13;;;5.33;;
9156;SDS011;4613;48.392;9.998;2023-05-23T00:46:46;8.10;;;5.53;;
9156;SDS011;4613;48.392;9.998;2023-05-23T00:49:39;6.27;;;4.80;;
9156;SDS011;4613;48.392;9.998;2023-05-23T00:52:28;9.03;;;5.60;;
9156;SDS011;4613;48.392;9.998;2023-05-23T00:55:18;9.23;;;4.73;;
9156;SDS011;4613;48.392;9.998;2023-05-23T00:58:07;7.17;;;5.23;;
9156;SDS011;4613;48.392;9.998;2023-05-23T01:00:57;6.73;;;5.10;;
9156;SDS011;4613;48.392;9.998;2023-05-23T01:03:47;7.47;;;5.63;;
9156;SDS011;4613;48.392;9.998;2023-05-23T01:06:37;7.27;;;5.47;;
9156;SDS011;4613;48.392;9.998;2023-05-23T01:09:27;6.53;;;5.07;;
9156;SDS011;4613;48.392;9.998;2023-05-23T01:18:36;9.33;;;6.00;;
9156;SDS011;4613;48.392;9.998;2023-05-23T01:21:29;7.17;;;5.10;;
9156;SDS011;4613;48.392;9.998;2023-05-23T01:24:29;7.43;;;5.53;;
9156;SDS011;4613;48.392;9.998;2023-05-23T01:30:44;7.90;;;6.03;;
9156;SDS011;4613;48.392;9.998;2023-05-23T01:33:37;7.23;;;5.43;;
9156;SDS011;4613;48.392;9.998;2023-05-23T01:36:28;8.50;;;5.90;;
9156;SDS011;4613;48.392;9.998;2023-05-23T01:39:18;8.93;;;5.83;;
9156;SDS011;4613;48.392;9.998;2023-05-23T01:42:07;6.63;;;5.17;;
9156;SDS011;4613;48.392;9.998;2023-05-23T01:44:57;7.43;;;5.77;;
9156;SDS011;4613;48.392;9.998;2023-05-23T01:47:47;9.37;;;6.57;;
9156;SDS011;4613;48.392;9.998;2023-05-23T01:50:38;8.03;;;5.70;;
9156;SDS011;4613;48.392;9.998;2023-05-23T01:53:28;8.37;;;5.40;;
9156;SDS011;4613;48.392;9.998;2023-05-23T01:56:20;8.43;;;5.53;;
9156;SDS011;4613;48.392;9.998;2023-05-23T01:59:09;8.00;;;5.47;;
9156;SDS011;4613;48.392;9.998;2023-05-23T02:01:59;7.10;;;5.60;;
9156;SDS011;4613;48.392;9.998;2023-05-23T02:04:48;7.83;;;5.60;;
9156;SDS011;4613;48.392;9.998;2023-05-23T02:07:38;7.53;;;5.30;;
9156;SDS011;4613;48.392;9.998;2023-05-23T02:10:27;9.13;;;6.20;;
9156;SDS011;4613;48.392;9.998;2023-05-23T02:13:17;9.03;;;5.70;;
9156;SDS011;4613;48.392;9.998;2023-05-23T02:16:06;8.07;;;6.00;;
9156;SDS011;4613;48.392;9.998;2023-05-23T02:18:56;9.93;;;6.10;;
9156;SDS011;4613;48.392;9.998;2023-05-23T02:21:46;10.27;;;7.10;;
9156;SDS011;4613;48.392;9.998;2023-05-23T02:24:35;11.53;;;7.10;;
9156;SDS011;4613;48.392;9.998;2023-05-23T02:27:24;13.33;;;6.90;;
9156;SDS011;4613;48.392;9.998;2023-05-23T02:30:13;12.27;;;7.50;;
9156;SDS011;4613;48.392;9.998;2023-05-23T02:33:05;9.93;;;6.73;;
9156;SDS011;4613;48.392;9.998;2023-05-23T02:35:55;12.73;;;7.30;;
9156;SDS011;4613;48.392;9.998;2023-05-23T02:38:44;14.57;;;8.10;;
9156;SDS011;4613;48.392;9.998;2023-05-23T02:41:34;12.27;;;7.57;;
9156;SDS011;4613;48.392;9.998;2023-05-23T02:44:24;12.57;;;7.13;;
9156;SDS011;4613;48.392;9.998;2023-05-23T02:47:14;10.20;;;6.90;;
9156;SDS011;4613;48.392;9.998;2023-05-23T02:50:04;12.23;;;7.17;;
9156;SDS011;4613;48.392;9.998;2023-05-23T02:52:54;11.03;;;6.90;;
9156;SDS011;4613;48.392;9.998;2023-05-23T02:55:44;12.47;;;7.87;;
9156;SDS011;4613;48.392;9.998;2023-05-23T02:58:33;12.87;;;7.47;;
9156;SDS011;4613;48.392;9.998;2023-05-23T03:01:25;12.37;;;7.17;;
9156;SDS011;4613;48.392;9.998;2023-05-23T03:04:15;14.93;;;8.80;;
9156;SDS011;4613;48.392;9.998;2023-05-23T03:07:04;14.53;;;8.27;;
9156;SDS011;4613;48.392;9.998;2023-05-23T03:09:54;11.37;;;7.63;;
9156;SDS011;4613;48.392;9.998;2023-05-23T03:12:45;14.20;;;7.47;;
9156;SDS011;4613;48.392;9.998;2023-05-23T03:15:36;13.07;;;7.77;;
9156;SDS011;4613;48.392;9.998;2023-05-23T03:18:25;14.43;;;8.03;;
9156;SDS011;4613;48.392;9.998;2023-05-23T03:21:14;11.77;;;7.23;;
9156;SDS011;4613;48.392;9.998;2023-05-23T03:24:04;11.77;;;7.00;;
9156;SDS011;4613;48.392;9.998;2023-05-23T03:26:54;11.43;;;7.70;;
9156;SDS011;4613;48.392;9.998;2023-05-23T03:29:43;12.93;;;8.00;;
9156;SDS011;4613;48.392;9.998;2023-05-23T03:32:33;13.50;;;8.20;;
9156;SDS011;4613;48.392;9.998;2023-05-23T03:35:22;10.57;;;7.53;;
9156;SDS011;4613;48.392;9.998;2023-05-23T03:38:12;15.30;;;7.97;;
9156;SDS011;4613;48.392;9.998;2023-05-23T03:41:01;12.97;;;7.53;;
9156;SDS011;4613;48.392;9.998;2023-05-23T03:43:51;18.63;;;8.03;;
9156;SDS011;4613;48.392;9.998;2023-05-23T03:46:40;13.03;;;7.93;;
9156;SDS011;4613;48.392;9.998;2023-05-23T03:49:30;13.33;;;8.60;;
9156;SDS011;4613;48.392;9.998;2023-05-23T03:52:20;16.90;;;8.97;;
9156;SDS011;4613;48.392;9.998;2023-05-23T03:55:09;12.80;;;8.07;;
9156;SDS011;4613;48.392;9.998;2023-05-23T03:57:59;13.17;;;7.53;;
9156;SDS011;4613;48.392;9.998;2023-05-23T04:00:49;16.23;;;8.47;;
9156;SDS011;4613;48.392;9.998;2023-05-23T04:03:39;12.93;;;8.00;;
9156;SDS011;4613;48.392;9.998;2023-05-23T04:06:29;13.20;;;8.60;;
9156;SDS011;4613;48.392;9.998;2023-05-23T04:09:19;11.87;;;8.03;;
9156;SDS011;4613;48.392;9.998;2023-05-23T04:12:10;12.20;;;7.87;;
9156;SDS011;4613;48.392;9.998;2023-05-23T04:15:00;13.87;;;8.10;;
9156;SDS011;4613;48.392;9.998;2023-05-23T04:17:51;12.53;;;8.30;;
9156;SDS011;4613;48.392;9.998;2023-05-23T04:20:41;12.27;;;7.53;;
9156;SDS011;4613;48.392;9.998;2023-05-23T04:23:31;13.03;;;7.60;;
9156;SDS011;4613;48.392;9.998;2023-05-23T04:26:21;12.37;;;7.93;;
9156;SDS011;4613;48.392;9.998;2023-05-23T04:29:14;13.17;;;8.00;;
9156;SDS011;4613;48.392;9.998;2023-05-23T04:32:04;13.80;;;8.50;;
9156;SDS011;4613;48.392;9.998;2023-05-23T04:34:54;14.13;;;8.23;;
9156;SDS011;4613;48.392;9.998;2023-05-23T04:37:44;15.53;;;8.83;;
9156;SDS011;4613;48.392;9.998;2023-05-23T04:40:35;16.20;;;9.50;;
9156;SDS011;4613;48.392;9.998;2023-05-23T04:43:56;15.63;;;9.07;;
9156;SDS011;4613;48.392;9.998;2023-05-23T04:46:56;16.90;;;9.37;;
9156;SDS011;4613;48.392;9.998;2023-05-23T04:49:51;15.40;;;9.50;;
9156;SDS011;4613;48.392;9.998;2023-05-23T04:52:41;17.57;;;9.43;;
9156;SDS011;4613;48.392;9.998;2023-05-23T04:55:32;16.50;;;9.37;;
9156;SDS011;4613;48.392;9.998;2023-05-23T04:58:21;15.93;;;9.10;;
9156;SDS011;4613;48.392;9.998;2023-05-23T05:01:11;17.33;;;9.87;;
9156;SDS011;4613;48.392;9.998;2023-05-23T05:04:01;15.57;;;9.20;;
9156;SDS011;4613;48.392;9.998;2023-05-23T05:06:51;15.83;;;9.17;;
9156;SDS011;4613;48.392;9.998;2023-05-23T05:09:41;16.07;;;9.40;;
9156;SDS011;4613;48.392;9.998;2023-05-23T05:12:33;16.27;;;9.63;;
9156;SDS011;4613;48.392;9.998;2023-05-23T05:15:22;16.10;;;9.37;;
9156;SDS011;4613;48.392;9.998;2023-05-23T05:18:17;14.47;;;9.43;;
9156;SDS011;4613;48.392;9.998;2023-05-23T05:21:07;16.73;;;9.47;;
9156;SDS011;4613;48.392;9.998;2023-05-23T05:23:56;17.20;;;8.87;;
9156;SDS011;4613;48.392;9.998;2023-05-23T05:26:47;16.47;;;9.83;;
9156;SDS011;4613;48.392;9.998;2023-05-23T05:32:23;17.23;;;9.87;;
9156;SDS011;4613;48.392;9.998;2023-05-23T05:35:12;16.93;;;10.37;;
9156;SDS011;4613;48.392;9.998;2023-05-23T05:38:04;17.73;;;10.73;;
9156;SDS011;4613;48.392;9.998;2023-05-23T05:40:55;17.57;;;9.73;;
9156;SDS011;4613;48.392;9.998;2023-05-23T05:43:46;17.30;;;10.33;;
9156;SDS011;4613;48.392;9.998;2023-05-23T05:46:36;15.33;;;9.10;;
9156;SDS011;4613;48.392;9.998;2023-05-23T05:49:26;19.13;;;9.90;;
9156;SDS011;4613;48.392;9.998;2023-05-23T05:52:17;18.97;;;10.80;;
9156;SDS011;4613;48.392;9.998;2023-05-23T05:55:10;19.67;;;11.27;;
9156;SDS011;4613;48.392;9.998;2023-05-23T05:58:01;21.17;;;10.67;;
9156;SDS011;4613;48.392;9.998;2023-05-23T06:00:55;19.73;;;10.13;;
9156;SDS011;4613;48.392;9.998;2023-05-23T06:03:46;19.70;;;10.60;;
9156;SDS011;4613;48.392;9.998;2023-05-23T06:06:35;19.40;;;10.97;;
9156;SDS011;4613;48.392;9.998;2023-05-23T06:09:24;17.10;;;10.23;;
9156;SDS011;4613;48.392;9.998;2023-05-23T06:12:14;19.17;;;10.23;;
9156;SDS011;4613;48.392;9.998;2023-05-23T06:15:05;18.53;;;9.77;;
9156;SDS011;4613;48.392;9.998;2023-05-23T06:17:54;17.37;;;10.00;;
9156;SDS011;4613;48.392;9.998;2023-05-23T06:20:44;15.97;;;10.30;;
9156;SDS011;4613;48.392;9.998;2023-05-23T06:23:37;17.43;;;10.27;;
9156;SDS011;4613;48.392;9.998;2023-05-23T06:26:26;18.40;;;10.23;;
9156;SDS011;4613;48.392;9.998;2023-05-23T06:29:15;17.47;;;9.83;;
9156;SDS011;4613;48.392;9.998;2023-05-23T06:32:04;20.03;;;10.27;;
9156;SDS011;4613;48.392;9.998;2023-05-23T06:34:54;19.33;;;10.47;;
9156;SDS011;4613;48.392;9.998;2023-05-23T06:37:43;20.43;;;10.73;;
9156;SDS011;4613;48.392;9.998;2023-05-23T06:40:34;18.17;;;10.67;;
9156;SDS011;4613;48.392;9.998;2023-05-23T06:43:24;18.23;;;10.33;;
9156;SDS011;4613;48.392;9.998;2023-05-23T06:46:14;18.97;;;10.17;;
9156;SDS011;4613;48.392;9.998;2023-05-23T06:49:04;21.03;;;10.10;;
9156;SDS011;4613;48.392;9.998;2023-05-23T06:51:53;23.03;;;10.40;;
9156;SDS011;4613;48.392;9.998;2023-05-23T06:54:42;17.97;;;10.30;;
9156;SDS011;4613;48.392;9.998;2023-05-23T06:57:32;21.47;;;11.47;;
9156;SDS011;4613;48.392;9.998;2023-05-23T07:00:22;18.07;;;10.03;;
9156;SDS011;4613;48.392;9.998;2023-05-23T07:03:24;20.07;;;10.30;;
9156;SDS011;4613;48.392;9.998;2023-05-23T07:06:13;22.40;;;10.53;;
9156;SDS011;4613;48.392;9.998;2023-05-23T07:09:04;20.40;;;10.07;;
9156;SDS011;4613;48.392;9.998;2023-05-23T07:11:53;22.07;;;11.27;;
9156;SDS011;4613;48.392;9.998;2023-05-23T07:14:43;22.07;;;10.87;;
9156;SDS011;4613;48.392;9.998;2023-05-23T07:17:33;21.03;;;11.07;;
9156;SDS011;4613;48.392;9.998;2023-05-23T07:20:24;18.63;;;10.20;;
9156;SDS011;4613;48.392;9.998;2023-05-23T07:23:21;21.87;;;11.33;;
9156;SDS011;4613;48.392;9.998;2023-05-23T07:26:12;20.17;;;10.10;;
9156;SDS011;4613;48.392;9.998;2023-05-23T07:29:07;18.10;;;10.00;;
9156;SDS011;4613;48.392;9.998;2023-05-23T07:31:57;17.93;;;10.27;;
9156;SDS011;4613;48.392;9.998;2023-05-23T07:34:47;19.60;;;10.63;;
9156;SDS011;4613;48.392;9.998;2023-05-23T07:37:36;18.73;;;10.83;;
9156;SDS011;4613;48.392;9.998;2023-05-23T07:40:26;20.13;;;10.37;;
9156;SDS011;4613;48.392;9.998;2023-05-23T07:43:15;15.73;;;9.40;;
9156;SDS011;4613;48.392;9.998;2023-05-23T07:46:05;19.77;;;10.80;;
9156;SDS011;4613;48.392;9.998;2023-05-23T07:48:53;18.77;;;9.97;;
9156;SDS011;4613;48.392;9.998;2023-05-23T07:51:45;17.37;;;10.23;;
9156;SDS011;4613;48.392;9.998;2023-05-23T07:54:35;15.37;;;9.83;;
9156;SDS011;4613;48.392;9.998;2023-05-23T07:57:25;17.60;;;10.50;;
9156;SDS011;4613;48.392;9.998;2023-05-23T08:00:15;18.20;;;9.33;;
9156;SDS011;4613;48.392;9.998;2023-05-23T08:03:05;20.07;;;10.70;;
9156;SDS011;4613;48.392;9.998;2023-05-23T08:06:00;21.00;;;10.60;;
9156;SDS011;4613;48.392;9.998;2023-05-23T08:08:50;18.20;;;10.70;;
9156;SDS011;4613;48.392;9.998;2023-05-23T08:11:40;20.33;;;10.50;;
9156;SDS011;4613;48.392;9.998;2023-05-23T08:14:29;17.33;;;9.57;;
9156;SDS011;4613;48.392;9.998;2023-05-23T08:17:47;18.57;;;10.40;;
9156;SDS011;4613;48.392;9.998;2023-05-23T08:20:38;20.33;;;10.53;;
9156;SDS011;4613;48.392;9.998;2023-05-23T08:23:27;18.47;;;10.67;;
9156;SDS011;4613;48.392;9.998;2023-05-23T08:26:17;19.00;;;10.70;;
9156;SDS011;4613;48.392;9.998;2023-05-23T08:29:08;18.10;;;10.13;;
9156;SDS011;4613;48.392;9.998;2023-05-23T08:31:58;19.00;;;10.63;;
9156;SDS011;4613;48.392;9.998;2023-05-23T08:34:47;18.20;;;11.00;;
9156;SDS011;4613;48.392;9.998;2023-05-23T08:37:37;19.00;;;11.03;;
9156;SDS011;4613;48.392;9.998;2023-05-23T08:40:26;17.10;;;10.53;;
9156;SDS011;4613;48.392;9.998;2023-05-23T08:43:26;21.13;;;10.63;;
9156;SDS011;4613;48.392;9.998;2023-05-23T08:46:15;19.77;;;10.70;;
9156;SDS011;4613;48.392;9.998;2023-05-23T08:49:05;19.57;;;10.90;;
9156;SDS011;4613;48.392;9.998;2023-05-23T08:51:56;15.73;;;9.73;;
9156;SDS011;4613;48.392;9.998;2023-05-23T08:54:49;16.43;;;9.70;;
9156;SDS011;4613;48.392;9.998;2023-05-23T08:57:39;13.73;;;8.47;;
9156;SDS011;4613;48.392;9.998;2023-05-23T09:00:46;15.70;;;9.73;;
9156;SDS011;4613;48.392;9.998;2023-05-23T09:03:35;14.67;;;8.67;;
9156;SDS011;4613;48.392;9.998;2023-05-23T09:06:38;15.90;;;9.57;;
9156;SDS011;4613;48.392;9.998;2023-05-23T09:09:28;15.17;;;9.50;;
9156;SDS011;4613;48.392;9.998;2023-05-23T09:12:17;15.13;;;8.83;;
9156;SDS011;4613;48.392;9.998;2023-05-23T09:15:10;12.40;;;8.27;;
9156;SDS011;4613;48.392;9.998;2023-05-23T09:18:01;12.40;;;8.80;;
9156;SDS011;4613;48.392;9.998;2023-05-23T09:20:51;12.53;;;8.33;;
9156;SDS011;4613;48.392;9.998;2023-05-23T09:23:41;14.20;;;8.50;;
9156;SDS011;4613;48.392;9.998;2023-05-23T09:26:32;15.17;;;9.03;;
9156;SDS011;4613;48.392;9.998;2023-05-23T09:29:23;14.40;;;9.00;;
9156;SDS011;4613;48.392;9.998;2023-05-23T09:32:14;14.77;;;8.83;;
9156;SDS011;4613;48.392;9.998;2023-05-23T09:35:05;14.67;;;9.07;;
9156;SDS011;4613;48.392;9.998;2023-05-23T09:37:56;13.30;;;8.70;;
9156;SDS011;4613;48.392;9.998;2023-05-23T09:40:49;14.20;;;9.27;;
9156;SDS011;4613;48.392;9.998;2023-05-23T09:43:52;16.30;;;8.30;;
9156;SDS011;4613;48.392;9.998;2023-05-23T09:46:42;14.03;;;9.20;;
9156;SDS011;4613;48.392;9.998;2023-05-23T09:49:38;12.43;;;8.90;;
9156;SDS011;4613;48.392;9.998;2023-05-23T09:52:38;14.60;;;8.90;;
9156;SDS011;4613;48.392;9.998;2023-05-23T09:55:27;13.30;;;8.40;;
9156;SDS011;4613;48.392;9.998;2023-05-23T09:58:20;14.40;;;8.53;;
9156;SDS011;4613;48.392;9.998;2023-05-23T10:01:11;13.17;;;8.70;;
9156;SDS011;4613;48.392;9.998;2023-05-23T10:04:01;12.83;;;8.40;;
9156;SDS011;4613;48.392;9.998;2023-05-23T10:06:55;11.90;;;8.30;;
9156;SDS011;4613;48.392;9.998;2023-05-23T10:09:54;13.93;;;8.47;;
9156;SDS011;4613;48.392;9.998;2023-05-23T10:12:48;12.60;;;8.17;;
9156;SDS011;4613;48.392;9.998;2023-05-23T10:15:40;13.00;;;8.50;;
9156;SDS011;4613;48.392;9.998;2023-05-23T10:18:33;10.33;;;7.77;;
9156;SDS011;4613;48.392;9.998;2023-05-23T10:21:29;14.03;;;7.90;;
9156;SDS011;4613;48.392;9.998;2023-05-23T10:24:28;12.80;;;8.53;;
9156;SDS011;4613;48.392;9.998;2023-05-23T10:27:17;11.03;;;8.00;;
9156;SDS011;4613;48.392;9.998;2023-05-23T10:30:07;12.07;;;7.90;;
9156;SDS011;4613;48.392;9.998;2023-05-23T10:32:57;12.10;;;8.20;;
9156;SDS011;4613;48.392;9.998;2023-05-23T10:35:59;12.57;;;8.30;;
9156;SDS011;4613;48.392;9.998;2023-05-23T10:39:01;13.73;;;8.67;;
9156;SDS011;4613;48.392;9.998;2023-05-23T10:42:08;10.93;;;8.23;;
9156;SDS011;4613;48.392;9.998;2023-05-23T10:45:13;13.00;;;8.87;;
9156;SDS011;4613;48.392;9.998;2023-05-23T10:48:15;13.63;;;8.50;;
9156;SDS011;4613;48.392;9.998;2023-05-23T10:51:23;11.63;;;8.17;;
9156;SDS011;4613;48.392;9.998;2023-05-23T10:54:12;11.83;;;8.40;;
9156;SDS011;4613;48.392;9.998;2023-05-23T10:57:04;12.77;;;8.10;;
9156;SDS011;4613;48.392;9.998;2023-05-23T10:59:54;10.97;;;8.10;;
9156;SDS011;4613;48.392;9.998;2023-05-23T11:02:53;10.13;;;7.77;;
9156;SDS011;4613;48.392;9.998;2023-05-23T11:05:51;9.93;;;7.27;;
9156;SDS011;4613;48.392;9.998;2023-05-23T11:08:41;11.53;;;7.77;;
9156;SDS011;4613;48.392;9.998;2023-05-23T11:17:49;11.07;;;7.37;;
9156;SDS011;4613;48.392;9.998;2023-05-23T11:20:39;9.73;;;7.20;;
9156;SDS011;4613;48.392;9.998;2023-05-23T11:23:38;9.40;;;7.20;;
9156;SDS011;4613;48.392;9.998;2023-05-23T11:26:30;10.03;;;7.60;;
9156;SDS011;4613;48.392;9.998;2023-05-23T11:29:19;10.90;;;8.07;;
9156;SDS011;4613;48.392;9.998;2023-05-23T11:32:09;11.90;;;7.83;;
9156;SDS011;4613;48.392;9.998;2023-05-23T11:35:02;11.50;;;7.93;;
9156;SDS011;4613;48.392;9.998;2023-05-23T11:37:59;9.00;;;7.33;;
9156;SDS011;4613;48.392;9.998;2023-05-23T11:40:49;10.43;;;7.57;;
9156;SDS011;4613;48.392;9.998;2023-05-23T11:43:47;9.63;;;7.30;;
9156;SDS011;4613;48.392;9.998;2023-05-23T11:46:38;8.37;;;6.27;;
9156;SDS011;4613;48.392;9.998;2023-05-23T11:49:29;9.60;;;6.97;;
9156;SDS011;4613;48.392;9.998;2023-05-23T11:52:19;9.03;;;7.10;;
9156;SDS011;4613;48.392;9.998;2023-05-23T11:55:08;8.87;;;6.63;;
9156;SDS011;4613;48.392;9.998;2023-05-23T11:57:59;9.40;;;7.27;;
9156;SDS011;4613;48.392;9.998;2023-05-23T12:00:48;8.30;;;6.63;;
9156;SDS011;4613;48.392;9.998;2023-05-23T12:03:45;9.43;;;7.00;;
9156;SDS011;4613;48.392;9.998;2023-05-23T12:06:35;8.33;;;7.00;;
9156;SDS011;4613;48.392;9.998;2023-05-23T12:09:29;8.57;;;6.67;;
9156;SDS011;4613;48.392;9.998;2023-05-23T12:12:18;7.87;;;6.77;;
9156;SDS011;4613;48.392;9.998;2023-05-23T12:15:09;6.87;;;6.00;;
9156;SDS011;4613;48.392;9.998;2023-05-23T12:17:59;6.80;;;5.90;;
9156;SDS011;4613;48.392;9.998;2023-05-23T12:20:49;6.90;;;5.87;;
9156;SDS011;4613;48.392;9.998;2023-05-23T12:23:39;6.37;;;5.47;;
9156;SDS011;4613;48.392;9.998;2023-05-23T12:26:29;7.00;;;6.03;;
9156;SDS011;4613;48.392;9.998;2023-05-23T12:29:19;6.33;;;5.43;;
9156;SDS011;4613;48.392;9.998;2023-05-23T12:32:10;7.30;;;5.07;;
9156;SDS011;4613;48.392;9.998;2023-05-23T12:34:59;7.30;;;5.43;;
9156;SDS011;4613;48.392;9.998;2023-05-23T12:37:48;5.63;;;4.67;;
9156;SDS011;4613;48.392;9.998;2023-05-23T12:40:37;6.57;;;4.97;;
9156;SDS011;4613;48.392;9.998;2023-05-23T12:43:26;6.30;;;5.30;;
9156;SDS011;4613;48.392;9.998;2023-05-23T12:46:16;8.03;;;5.80;;
9156;SDS011;4613;48.392;9.998;2023-05-23T12:49:06;6.83;;;5.20;;
9156;SDS011;4613;48.392;9.998;2023-05-23T12:51:55;6.17;;;5.30;;
9156;SDS011;4613;48.392;9.998;2023-05-23T12:54:44;6.10;;;4.97;;
9156;SDS011;4613;48.392;9.998;2023-05-23T12:57:33;6.47;;;5.53;;
9156;SDS011;4613;48.392;9.998;2023-05-23T13:00:23;7.50;;;5.57;;
9156;SDS011;4613;48.392;9.998;2023-05-23T13:03:12;7.93;;;5.90;;
9156;SDS011;4613;48.392;9.998;2023-05-23T13:06:02;7.97;;;5.33;;
9156;SDS011;4613;48.392;9.998;2023-05-23T13:08:51;6.27;;;5.10;;
9156;SDS011;4613;48.392;9.998;2023-05-23T13:11:42;7.80;;;5.13;;
9156;SDS011;4613;48.392;9.998;2023-05-23T13:14:32;6.73;;;5.30;;
9156;SDS011;4613;48.392;9.998;2023-05-23T13:17:21;6.20;;;5.20;;
9156;SDS011;4613;48.392;9.998;2023-05-23T13:20:10;7.60;;;5.60;;
9156;SDS011;4613;48.392;9.998;2023-05-23T13:22:59;5.67;;;5.03;;
9156;SDS011;4613;48.392;9.998;2023-05-23T13:25:48;7.10;;;5.60;;
9156;SDS011;4613;48.392;9.998;2023-05-23T13:28:38;7.90;;;5.90;;
9156;SDS011;4613;48.392;9.998;2023-05-23T13:31:27;6.80;;;5.07;;
9156;SDS011;4613;48.392;9.998;2023-05-23T13:34:17;7.87;;;6.03;;
9156;SDS011;4613;48.392;9.998;2023-05-23T13:37:06;6.60;;;5.07;;
9156;SDS011;4613;48.392;9.998;2023-05-23T13:39:56;7.13;;;5.30;;
9156;SDS011;4613;48.392;9.998;2023-05-23T13:42:46;6.30;;;4.93;;
9156;SDS011;4613;48.392;9.998;2023-05-23T13:45:36;5.43;;;4.63;;
9156;SDS011;4613;48.392;9.998;2023-05-23T13:48:26;6.87;;;5.00;;
9156;SDS011;4613;48.392;9.998;2023-05-23T13:51:15;4.93;;;4.30;;
9156;SDS011;4613;48.392;9.998;2023-05-23T13:54:04;5.00;;;4.13;;
9156;SDS011;4613;48.392;9.998;2023-05-23T13:56:53;5.00;;;4.40;;
9156;SDS011;4613;48.392;9.998;2023-05-23T13:59:42;5.17;;;4.20;;
9156;SDS011;4613;48.392;9.998;2023-05-23T14:02:31;6.10;;;4.40;;
9156;SDS011;4613;48.392;9.998;2023-05-23T14:05:21;4.83;;;4.27;;
9156;SDS011;4613;48.392;9.998;2023-05-23T14:08:11;7.27;;;4.53;;
9156;SDS011;4613;48.392;9.998;2023-05-23T14:11:01;6.87;;;4.20;;
9156;SDS011;4613;48.392;9.998;2023-05-23T14:13:50;6.17;;;4.90;;
9156;SDS011;4613;48.392;9.998;2023-05-23T14:16:39;5.17;;;4.23;;
9156;SDS011;4613;48.392;9.998;2023-05-23T14:19:28;5.20;;;4.37;;
9156;SDS011;4613;48.392;9.998;2023-05-23T14:22:17;5.07;;;4.47;;
9156;SDS011;4613;48.392;9.998;2023-05-23T14:25:07;5.03;;;4.33;;
9156;SDS011;4613;48.392;9.998;2023-05-23T14:27:56;4.87;;;4.10;;
9156;SDS011;4613;48.392;9.998;2023-05-23T14:30:45;5.70;;;4.53;;
9156;SDS011;4613;48.392;9.998;2023-05-23T14:33:35;5.57;;;4.13;;
9156;SDS011;4613;48.392;9.998;2023-05-23T14:36:24;4.93;;;4.17;;
9156;SDS011;4613;48.392;9.998;2023-05-23T14:39:15;4.80;;;3.80;;
9156;SDS011;4613;48.392;9.998;2023-05-23T14:42:05;5.40;;;3.80;;
9156;SDS011;4613;48.392;9.998;2023-05-23T14:44:54;5.03;;;4.03;;
9156;SDS011;4613;48.392;9.998;2023-05-23T14:47:43;4.13;;;3.73;;
9156;SDS011;4613;48.392;9.998;2023-05-23T14:50:32;4.37;;;3.50;;
9156;SDS011;4613;48.392;9.998;2023-05-23T14:53:21;4.83;;;4.00;;
9156;SDS011;4613;48.392;9.998;2023-05-23T14:56:11;4.67;;;3.93;;
9156;SDS011;4613;48.392;9.998;2023-05-23T14:59:01;4.60;;;3.93;;
9156;SDS011;4613;48.392;9.998;2023-05-23T15:01:51;3.97;;;3.50;;
9156;SDS011;4613;48.392;9.998;2023-05-23T15:04:40;4.30;;;3.50;;
9156;SDS011;4613;48.392;9.998;2023-05-23T15:07:30;3.67;;;3.17;;
9156;SDS011;4613;48.392;9.998;2023-05-23T15:10:19;4.47;;;3.90;;
9156;SDS011;4613;48.392;9.998;2023-05-23T15:13:09;6.40;;;3.50;;
9156;SDS011;4613;48.392;9.998;2023-05-23T15:15:59;4.37;;;3.43;;
9156;SDS011;4613;48.392;9.998;2023-05-23T15:18:48;3.70;;;3.30;;
9156;SDS011;4613;48.392;9.998;2023-05-23T15:21:38;4.73;;;3.63;;
9156;SDS011;4613;48.392;9.998;2023-05-23T15:24:27;3.80;;;3.40;;
9156;SDS011;4613;48.392;9.998;2023-05-23T15:27:16;3.60;;;3.30;;
9156;SDS011;4613;48.392;9.998;2023-05-23T15:30:06;3.73;;;3.30;;
9156;SDS011;4613;48.392;9.998;2023-05-23T15:32:56;4.67;;;3.83;;
9156;SDS011;4613;48.392;9.998;2023-05-23T15:35:46;3.77;;;3.20;;
9156;SDS011;4613;48.392;9.998;2023-05-23T15:38:35;3.37;;;3.07;;
9156;SDS011;4613;48.392;9.998;2023-05-23T15:41:24;3.50;;;3.10;;
9156;SDS011;4613;48.392;9.998;2023-05-23T15:44:14;3.73;;;3.03;;
9156;SDS011;4613;48.392;9.998;2023-05-23T15:47:07;3.83;;;3.20;;
9156;SDS011;4613;48.392;9.998;2023-05-23T15:49:56;4.03;;;2.93;;
9156;SDS011;4613;48.392;9.998;2023-05-23T15:52:45;3.80;;;3.40;;
9156;SDS011;4613;48.392;9.998;2023-05-23T15:55:34;4.33;;;3.20;;
9156;SDS011;4613;48.392;9.998;2023-05-23T15:58:24;3.33;;;3.03;;
9156;SDS011;4613;48.392;9.998;2023-05-23T16:01:13;3.70;;;3.30;;
9156;SDS011;4613;48.392;9.998;2023-05-23T16:04:03;3.40;;;3.10;;
9156;SDS011;4613;48.392;9.998;2023-05-23T16:06:53;2.97;;;2.67;;
9156;SDS011;4613;48.392;9.998;2023-05-23T16:09:42;3.00;;;2.70;;
9156;SDS011;4613;48.392;9.998;2023-05-23T16:12:31;3.33;;;2.67;;
9156;SDS011;4613;48.392;9.998;2023-05-23T16:15:20;4.10;;;2.70;;
9156;SDS011;4613;48.392;9.998;2023-05-23T16:18:09;3.20;;;2.50;;
9156;SDS011;4613;48.392;9.998;2023-05-23T16:20:59;3.00;;;2.70;;
9156;SDS011;4613;48.392;9.998;2023-05-23T16:23:52;2.60;;;2.40;;
9156;SDS011;4613;48.392;9.998;2023-05-23T16:26:41;2.60;;;2.40;;
9156;SDS011;4613;48.392;9.998;2023-05-23T16:29:30;3.20;;;2.80;;
9156;SDS011;4613;48.392;9.998;2023-05-23T16:32:20;2.50;;;2.30;;
9156;SDS011;4613;48.392;9.998;2023-05-23T16:35:09;3.53;;;2.60;;
9156;SDS011;4613;48.392;9.998;2023-05-23T16:37:58;2.60;;;2.40;;
9156;SDS011;4613;48.392;9.998;2023-05-23T16:40:48;2.60;;;2.40;;
9156;SDS011;4613;48.392;9.998;2023-05-23T16:43:37;2.50;;;2.30;;
9156;SDS011;4613;48.392;9.998;2023-05-23T16:46:26;2.43;;;2.23;;
9156;SDS011;4613;48.392;9.998;2023-05-23T16:49:15;4.97;;;2.50;;
9156;SDS011;4613;48.392;9.998;2023-05-23T16:52:04;2.40;;;2.20;;
9156;SDS011;4613;48.392;9.998;2023-05-23T16:54:54;2.10;;;1.90;;
9156;SDS011;4613;48.392;9.998;2023-05-23T16:57:43;2.33;;;2.13;;
9156;SDS011;4613;48.392;9.998;2023-05-23T17:00:32;2.40;;;2.20;;
9156;SDS011;4613;48.392;9.998;2023-05-23T17:03:21;2.50;;;2.30;;
9156;SDS011;4613;48.392;9.998;2023-05-23T17:06:10;2.20;;;2.00;;
9156;SDS011;4613;48.392;9.998;2023-05-23T17:08:59;2.60;;;2.40;;
9156;SDS011;4613;48.392;9.998;2023-05-23T17:11:50;2.17;;;2.00;;
9156;SDS011;4613;48.392;9.998;2023-05-23T17:14:39;2.20;;;2.00;;
9156;SDS011;4613;48.392;9.998;2023-05-23T17:17:29;1.70;;;1.60;;
9156;SDS011;4613;48.392;9.998;2023-05-23T17:20:18;1.90;;;1.80;;
9156;SDS011;4613;48.392;9.998;2023-05-23T17:23:12;2.30;;;1.93;;
9156;SDS011;4613;48.392;9.998;2023-05-23T17:26:01;2.60;;;2.33;;
9156;SDS011;4613;48.392;9.998;2023-05-23T17:28:50;2.77;;;2.13;;
9156;SDS011;4613;48.392;9.998;2023-05-23T17:31:40;2.43;;;2.20;;
9156;SDS011;4613;48.392;9.998;2023-05-23T17:34:29;2.27;;;2.07;;
9156;SDS011;4613;48.392;9.998;2023-05-23T17:37:18;2.17;;;1.97;;
9156;SDS011;4613;48.392;9.998;2023-05-23T17:40:08;1.93;;;1.80;;
9156;SDS011;4613;48.392;9.998;2023-05-23T17:42:59;2.13;;;1.97;;
9156;SDS011;4613;48.392;9.998;2023-05-23T17:45:48;2.13;;;1.93;;
9156;SDS011;4613;48.392;9.998;2023-05-23T17:48:37;1.90;;;1.80;;